<?xml version="1.0" encoding="UTF-8" standalone="no" ?>
<gpx xmlns="http://www.topografix.com/GPX/1/1" xmlns:xsi="http://www.w3.org/2001/XMLSchema-instance" xsi:schemaLocation="http://www.topografix.com/GPX/1/1 http://www.topografix.com/GPX/1/1/gpx.xsd" version="1.1" creator="VisuGPX - https://www.visugpx.com">
  <metadata>
    <name> rochers des demoiselles</name>
  </metadata>
  <trk>
    <name><![CDATA[04-JUIN-15 11:01:06 AM]]></name>
    <extensions>
      <line xmlns="http://www.topografix.com/GPX/gpx_style/0/2">
        <color>0000FF</color>
        <width>4</width>
      </line>
    </extensions>
    <trkseg>
      <trkpt lat="48.37725" lon="2.67953">
        <ele>112.61</ele>
        <time>2015-06-04T07:11:52Z</time>
      </trkpt>
      <trkpt lat="48.37729" lon="2.67957">
        <ele>113.57</ele>
        <time>2015-06-04T07:12:18Z</time>
      </trkpt>
      <trkpt lat="48.37737" lon="2.67949">
        <ele>113.57</ele>
        <time>2015-06-04T07:12:32Z</time>
      </trkpt>
      <trkpt lat="48.37743" lon="2.67945">
        <ele>114.05</ele>
        <time>2015-06-04T07:12:50Z</time>
      </trkpt>
      <trkpt lat="48.37745" lon="2.67943">
        <ele>114.53</ele>
        <time>2015-06-04T07:12:57Z</time>
      </trkpt>
      <trkpt lat="48.37756" lon="2.67941">
        <ele>116.46</ele>
        <time>2015-06-04T07:13:09Z</time>
      </trkpt>
      <trkpt lat="48.37761" lon="2.67946">
        <ele>116.94</ele>
        <time>2015-06-04T07:13:14Z</time>
      </trkpt>
      <trkpt lat="48.37772" lon="2.67945">
        <ele>119.82</ele>
        <time>2015-06-04T07:13:29Z</time>
      </trkpt>
      <trkpt lat="48.37777" lon="2.67935">
        <ele>120.78</ele>
        <time>2015-06-04T07:13:43Z</time>
      </trkpt>
      <trkpt lat="48.37785" lon="2.67925">
        <ele>123.67</ele>
        <time>2015-06-04T07:13:56Z</time>
      </trkpt>
      <trkpt lat="48.37792" lon="2.67932">
        <ele>126.55</ele>
        <time>2015-06-04T07:14:08Z</time>
      </trkpt>
      <trkpt lat="48.37796" lon="2.67928">
        <ele>129.43</ele>
        <time>2015-06-04T07:14:21Z</time>
      </trkpt>
      <trkpt lat="48.37801" lon="2.67913">
        <ele>130.4</ele>
        <time>2015-06-04T07:14:34Z</time>
      </trkpt>
      <trkpt lat="48.37804" lon="2.67908">
        <ele>132.8</ele>
        <time>2015-06-04T07:14:47Z</time>
      </trkpt>
      <trkpt lat="48.37806" lon="2.67901">
        <ele>135.2</ele>
        <time>2015-06-04T07:14:58Z</time>
      </trkpt>
      <trkpt lat="48.37809" lon="2.67901">
        <ele>136.16</ele>
        <time>2015-06-04T07:15:11Z</time>
      </trkpt>
      <trkpt lat="48.37817" lon="2.67901">
        <ele>137.13</ele>
        <time>2015-06-04T07:15:24Z</time>
      </trkpt>
      <trkpt lat="48.37822" lon="2.67908">
        <ele>137.13</ele>
        <time>2015-06-04T07:15:41Z</time>
      </trkpt>
      <trkpt lat="48.37826" lon="2.67908">
        <ele>137.61</ele>
        <time>2015-06-04T07:15:53Z</time>
      </trkpt>
      <trkpt lat="48.3783" lon="2.67899">
        <ele>137.61</ele>
        <time>2015-06-04T07:16:05Z</time>
      </trkpt>
      <trkpt lat="48.37829" lon="2.67896">
        <ele>137.61</ele>
        <time>2015-06-04T07:16:18Z</time>
      </trkpt>
      <trkpt lat="48.37833" lon="2.67886">
        <ele>138.09</ele>
        <time>2015-06-04T07:16:31Z</time>
      </trkpt>
      <trkpt lat="48.37839" lon="2.67887">
        <ele>137.61</ele>
        <time>2015-06-04T07:16:44Z</time>
      </trkpt>
      <trkpt lat="48.37842" lon="2.67894">
        <ele>137.13</ele>
        <time>2015-06-04T07:16:58Z</time>
      </trkpt>
      <trkpt lat="48.37844" lon="2.679">
        <ele>136.64</ele>
        <time>2015-06-04T07:17:04Z</time>
      </trkpt>
      <trkpt lat="48.37848" lon="2.67895">
        <ele>137.13</ele>
        <time>2015-06-04T07:17:09Z</time>
      </trkpt>
      <trkpt lat="48.3785" lon="2.67886">
        <ele>137.13</ele>
        <time>2015-06-04T07:17:15Z</time>
      </trkpt>
      <trkpt lat="48.37852" lon="2.67881">
        <ele>137.13</ele>
        <time>2015-06-04T07:17:18Z</time>
      </trkpt>
      <trkpt lat="48.37851" lon="2.6787">
        <ele>137.61</ele>
        <time>2015-06-04T07:17:29Z</time>
      </trkpt>
      <trkpt lat="48.37852" lon="2.67866">
        <ele>137.61</ele>
        <time>2015-06-04T07:17:31Z</time>
      </trkpt>
      <trkpt lat="48.37858" lon="2.67861">
        <ele>137.61</ele>
        <time>2015-06-04T07:17:47Z</time>
      </trkpt>
      <trkpt lat="48.37859" lon="2.67859">
        <ele>137.13</ele>
        <time>2015-06-04T07:17:58Z</time>
      </trkpt>
      <trkpt lat="48.37859" lon="2.6786">
        <ele>137.13</ele>
        <time>2015-06-04T07:18:10Z</time>
      </trkpt>
      <trkpt lat="48.37861" lon="2.67854">
        <ele>137.61</ele>
        <time>2015-06-04T07:18:21Z</time>
      </trkpt>
      <trkpt lat="48.37855" lon="2.67834">
        <ele>137.61</ele>
        <time>2015-06-04T07:18:33Z</time>
      </trkpt>
      <trkpt lat="48.37856" lon="2.67825">
        <ele>138.57</ele>
        <time>2015-06-04T07:18:43Z</time>
      </trkpt>
      <trkpt lat="48.37862" lon="2.67821">
        <ele>137.13</ele>
        <time>2015-06-04T07:18:55Z</time>
      </trkpt>
      <trkpt lat="48.37861" lon="2.67819">
        <ele>137.13</ele>
        <time>2015-06-04T07:19:23Z</time>
      </trkpt>
      <trkpt lat="48.37863" lon="2.67802">
        <ele>137.13</ele>
        <time>2015-06-04T07:19:45Z</time>
      </trkpt>
      <trkpt lat="48.3786" lon="2.67796">
        <ele>136.16</ele>
        <time>2015-06-04T07:19:55Z</time>
      </trkpt>
      <trkpt lat="48.37857" lon="2.67782">
        <ele>135.68</ele>
        <time>2015-06-04T07:20:07Z</time>
      </trkpt>
      <trkpt lat="48.37858" lon="2.67776">
        <ele>135.68</ele>
        <time>2015-06-04T07:20:10Z</time>
      </trkpt>
      <trkpt lat="48.37858" lon="2.67772">
        <ele>135.68</ele>
        <time>2015-06-04T07:20:12Z</time>
      </trkpt>
      <trkpt lat="48.37858" lon="2.67755">
        <ele>132.8</ele>
        <time>2015-06-04T07:20:24Z</time>
      </trkpt>
      <trkpt lat="48.37857" lon="2.67747">
        <ele>132.8</ele>
        <time>2015-06-04T07:20:37Z</time>
      </trkpt>
      <trkpt lat="48.37858" lon="2.67743">
        <ele>133.76</ele>
        <time>2015-06-04T07:20:58Z</time>
      </trkpt>
      <trkpt lat="48.37854" lon="2.67736">
        <ele>134.24</ele>
        <time>2015-06-04T07:21:05Z</time>
      </trkpt>
      <trkpt lat="48.37849" lon="2.67735">
        <ele>135.2</ele>
        <time>2015-06-04T07:21:12Z</time>
      </trkpt>
      <trkpt lat="48.37843" lon="2.67726">
        <ele>136.64</ele>
        <time>2015-06-04T07:21:25Z</time>
      </trkpt>
      <trkpt lat="48.37842" lon="2.67708">
        <ele>136.64</ele>
        <time>2015-06-04T07:21:46Z</time>
      </trkpt>
      <trkpt lat="48.37839" lon="2.67704">
        <ele>136.16</ele>
        <time>2015-06-04T07:21:50Z</time>
      </trkpt>
      <trkpt lat="48.37836" lon="2.67692">
        <ele>136.16</ele>
        <time>2015-06-04T07:22:02Z</time>
      </trkpt>
      <trkpt lat="48.37832" lon="2.67673">
        <ele>136.64</ele>
        <time>2015-06-04T07:22:13Z</time>
      </trkpt>
      <trkpt lat="48.37831" lon="2.67665">
        <ele>136.64</ele>
        <time>2015-06-04T07:22:17Z</time>
      </trkpt>
      <trkpt lat="48.3783" lon="2.6765">
        <ele>136.64</ele>
        <time>2015-06-04T07:22:25Z</time>
      </trkpt>
      <trkpt lat="48.37826" lon="2.67626">
        <ele>136.64</ele>
        <time>2015-06-04T07:22:38Z</time>
      </trkpt>
      <trkpt lat="48.37825" lon="2.67626">
        <ele>136.64</ele>
        <time>2015-06-04T07:22:39Z</time>
      </trkpt>
      <trkpt lat="48.37825" lon="2.67603">
        <ele>136.64</ele>
        <time>2015-06-04T07:22:48Z</time>
      </trkpt>
      <trkpt lat="48.37824" lon="2.67585">
        <ele>136.64</ele>
        <time>2015-06-04T07:23:01Z</time>
      </trkpt>
      <trkpt lat="48.3782" lon="2.6758">
        <ele>136.16</ele>
        <time>2015-06-04T07:23:13Z</time>
      </trkpt>
      <trkpt lat="48.37814" lon="2.67568">
        <ele>136.16</ele>
        <time>2015-06-04T07:23:21Z</time>
      </trkpt>
      <trkpt lat="48.37811" lon="2.67561">
        <ele>135.68</ele>
        <time>2015-06-04T07:23:25Z</time>
      </trkpt>
      <trkpt lat="48.37805" lon="2.67551">
        <ele>135.2</ele>
        <time>2015-06-04T07:23:38Z</time>
      </trkpt>
      <trkpt lat="48.37802" lon="2.67539">
        <ele>134.72</ele>
        <time>2015-06-04T07:23:51Z</time>
      </trkpt>
      <trkpt lat="48.37806" lon="2.67537">
        <ele>135.68</ele>
        <time>2015-06-04T07:24:03Z</time>
      </trkpt>
      <trkpt lat="48.37817" lon="2.67535">
        <ele>136.16</ele>
        <time>2015-06-04T07:24:14Z</time>
      </trkpt>
      <trkpt lat="48.37827" lon="2.67553">
        <ele>135.68</ele>
        <time>2015-06-04T07:24:26Z</time>
      </trkpt>
      <trkpt lat="48.37834" lon="2.67562">
        <ele>136.16</ele>
        <time>2015-06-04T07:24:33Z</time>
      </trkpt>
      <trkpt lat="48.37838" lon="2.67565">
        <ele>135.68</ele>
        <time>2015-06-04T07:24:35Z</time>
      </trkpt>
      <trkpt lat="48.37847" lon="2.67574">
        <ele>135.68</ele>
        <time>2015-06-04T07:24:42Z</time>
      </trkpt>
      <trkpt lat="48.37852" lon="2.67576">
        <ele>135.2</ele>
        <time>2015-06-04T07:24:46Z</time>
      </trkpt>
      <trkpt lat="48.37859" lon="2.67581">
        <ele>135.2</ele>
        <time>2015-06-04T07:24:51Z</time>
      </trkpt>
      <trkpt lat="48.3787" lon="2.67591">
        <ele>135.2</ele>
        <time>2015-06-04T07:25:00Z</time>
      </trkpt>
      <trkpt lat="48.37877" lon="2.67596">
        <ele>134.72</ele>
        <time>2015-06-04T07:25:05Z</time>
      </trkpt>
      <trkpt lat="48.37881" lon="2.67598">
        <ele>134.24</ele>
        <time>2015-06-04T07:25:09Z</time>
      </trkpt>
      <trkpt lat="48.37884" lon="2.67594">
        <ele>133.28</ele>
        <time>2015-06-04T07:25:14Z</time>
      </trkpt>
      <trkpt lat="48.37889" lon="2.67592">
        <ele>131.84</ele>
        <time>2015-06-04T07:25:22Z</time>
      </trkpt>
      <trkpt lat="48.37894" lon="2.6759">
        <ele>130.88</ele>
        <time>2015-06-04T07:25:26Z</time>
      </trkpt>
      <trkpt lat="48.37898" lon="2.67584">
        <ele>130.4</ele>
        <time>2015-06-04T07:25:31Z</time>
      </trkpt>
      <trkpt lat="48.37903" lon="2.67599">
        <ele>127.99</ele>
        <time>2015-06-04T07:25:45Z</time>
      </trkpt>
      <trkpt lat="48.37905" lon="2.6761">
        <ele>127.51</ele>
        <time>2015-06-04T07:25:57Z</time>
      </trkpt>
      <trkpt lat="48.37907" lon="2.67607">
        <ele>127.51</ele>
        <time>2015-06-04T07:26:07Z</time>
      </trkpt>
      <trkpt lat="48.37908" lon="2.6761">
        <ele>127.03</ele>
        <time>2015-06-04T07:26:12Z</time>
      </trkpt>
      <trkpt lat="48.37913" lon="2.67619">
        <ele>128.47</ele>
        <time>2015-06-04T07:26:21Z</time>
      </trkpt>
      <trkpt lat="48.37914" lon="2.67608">
        <ele>131.36</ele>
        <time>2015-06-04T07:26:34Z</time>
      </trkpt>
      <trkpt lat="48.37918" lon="2.67596">
        <ele>131.84</ele>
        <time>2015-06-04T07:26:44Z</time>
      </trkpt>
      <trkpt lat="48.37929" lon="2.67579">
        <ele>130.4</ele>
        <time>2015-06-04T07:26:57Z</time>
      </trkpt>
      <trkpt lat="48.37934" lon="2.6757">
        <ele>129.43</ele>
        <time>2015-06-04T07:27:08Z</time>
      </trkpt>
      <trkpt lat="48.37936" lon="2.67565">
        <ele>129.43</ele>
        <time>2015-06-04T07:27:18Z</time>
      </trkpt>
      <trkpt lat="48.37947" lon="2.67549">
        <ele>129.43</ele>
        <time>2015-06-04T07:27:32Z</time>
      </trkpt>
      <trkpt lat="48.37953" lon="2.67544">
        <ele>129.92</ele>
        <time>2015-06-04T07:27:46Z</time>
      </trkpt>
      <trkpt lat="48.37952" lon="2.67542">
        <ele>130.88</ele>
        <time>2015-06-04T07:27:58Z</time>
      </trkpt>
      <trkpt lat="48.37952" lon="2.67543">
        <ele>131.36</ele>
        <time>2015-06-04T07:28:21Z</time>
      </trkpt>
      <trkpt lat="48.3795" lon="2.67533">
        <ele>131.84</ele>
        <time>2015-06-04T07:28:34Z</time>
      </trkpt>
      <trkpt lat="48.37952" lon="2.67522">
        <ele>132.8</ele>
        <time>2015-06-04T07:28:40Z</time>
      </trkpt>
      <trkpt lat="48.37957" lon="2.67509">
        <ele>131.84</ele>
        <time>2015-06-04T07:28:50Z</time>
      </trkpt>
      <trkpt lat="48.37959" lon="2.67495">
        <ele>129.92</ele>
        <time>2015-06-04T07:29:01Z</time>
      </trkpt>
      <trkpt lat="48.3796" lon="2.67494">
        <ele>129.92</ele>
        <time>2015-06-04T07:29:02Z</time>
      </trkpt>
      <trkpt lat="48.37961" lon="2.67475">
        <ele>129.92</ele>
        <time>2015-06-04T07:29:14Z</time>
      </trkpt>
      <trkpt lat="48.37962" lon="2.67467">
        <ele>131.36</ele>
        <time>2015-06-04T07:29:29Z</time>
      </trkpt>
      <trkpt lat="48.37962" lon="2.67456">
        <ele>130.4</ele>
        <time>2015-06-04T07:29:40Z</time>
      </trkpt>
      <trkpt lat="48.3796" lon="2.67442">
        <ele>130.4</ele>
        <time>2015-06-04T07:29:51Z</time>
      </trkpt>
      <trkpt lat="48.37968" lon="2.6742">
        <ele>130.88</ele>
        <time>2015-06-04T07:30:06Z</time>
      </trkpt>
      <trkpt lat="48.37963" lon="2.67407">
        <ele>132.32</ele>
        <time>2015-06-04T07:30:19Z</time>
      </trkpt>
      <trkpt lat="48.37962" lon="2.67395">
        <ele>131.36</ele>
        <time>2015-06-04T07:30:30Z</time>
      </trkpt>
      <trkpt lat="48.37966" lon="2.67396">
        <ele>131.84</ele>
        <time>2015-06-04T07:30:43Z</time>
      </trkpt>
      <trkpt lat="48.37967" lon="2.67403">
        <ele>131.84</ele>
        <time>2015-06-04T07:30:59Z</time>
      </trkpt>
      <trkpt lat="48.37967" lon="2.67406">
        <ele>130.88</ele>
        <time>2015-06-04T07:31:03Z</time>
      </trkpt>
      <trkpt lat="48.37973" lon="2.67425">
        <ele>129.43</ele>
        <time>2015-06-04T07:31:15Z</time>
      </trkpt>
      <trkpt lat="48.3797" lon="2.67449">
        <ele>130.4</ele>
        <time>2015-06-04T07:31:27Z</time>
      </trkpt>
      <trkpt lat="48.3797" lon="2.67454">
        <ele>129.92</ele>
        <time>2015-06-04T07:31:30Z</time>
      </trkpt>
      <trkpt lat="48.37972" lon="2.67468">
        <ele>130.4</ele>
        <time>2015-06-04T07:31:45Z</time>
      </trkpt>
      <trkpt lat="48.3797" lon="2.67476">
        <ele>128.47</ele>
        <time>2015-06-04T07:32:05Z</time>
      </trkpt>
      <trkpt lat="48.37968" lon="2.67479">
        <ele>128.95</ele>
        <time>2015-06-04T07:32:18Z</time>
      </trkpt>
      <trkpt lat="48.37968" lon="2.67473">
        <ele>129.92</ele>
        <time>2015-06-04T07:32:38Z</time>
      </trkpt>
      <trkpt lat="48.37965" lon="2.67465">
        <ele>130.4</ele>
        <time>2015-06-04T07:32:50Z</time>
      </trkpt>
      <trkpt lat="48.37963" lon="2.67456">
        <ele>129.43</ele>
        <time>2015-06-04T07:33:04Z</time>
      </trkpt>
      <trkpt lat="48.37962" lon="2.67446">
        <ele>128.95</ele>
        <time>2015-06-04T07:33:18Z</time>
      </trkpt>
      <trkpt lat="48.37967" lon="2.67429">
        <ele>128.95</ele>
        <time>2015-06-04T07:33:30Z</time>
      </trkpt>
      <trkpt lat="48.37966" lon="2.67419">
        <ele>129.92</ele>
        <time>2015-06-04T07:33:47Z</time>
      </trkpt>
      <trkpt lat="48.37965" lon="2.67404">
        <ele>132.32</ele>
        <time>2015-06-04T07:34:00Z</time>
      </trkpt>
      <trkpt lat="48.37965" lon="2.67395">
        <ele>129.92</ele>
        <time>2015-06-04T07:34:13Z</time>
      </trkpt>
      <trkpt lat="48.37964" lon="2.67381">
        <ele>128.95</ele>
        <time>2015-06-04T07:34:28Z</time>
      </trkpt>
      <trkpt lat="48.37961" lon="2.67376">
        <ele>128.95</ele>
        <time>2015-06-04T07:34:32Z</time>
      </trkpt>
      <trkpt lat="48.37955" lon="2.67377">
        <ele>129.92</ele>
        <time>2015-06-04T07:34:43Z</time>
      </trkpt>
      <trkpt lat="48.37942" lon="2.6738">
        <ele>130.4</ele>
        <time>2015-06-04T07:34:54Z</time>
      </trkpt>
      <trkpt lat="48.37938" lon="2.67379">
        <ele>130.88</ele>
        <time>2015-06-04T07:34:57Z</time>
      </trkpt>
      <trkpt lat="48.37922" lon="2.67373">
        <ele>130.4</ele>
        <time>2015-06-04T07:35:09Z</time>
      </trkpt>
      <trkpt lat="48.3792" lon="2.67373">
        <ele>131.36</ele>
        <time>2015-06-04T07:35:11Z</time>
      </trkpt>
      <trkpt lat="48.37907" lon="2.6737">
        <ele>130.4</ele>
        <time>2015-06-04T07:35:24Z</time>
      </trkpt>
      <trkpt lat="48.37897" lon="2.67365">
        <ele>130.88</ele>
        <time>2015-06-04T07:35:42Z</time>
      </trkpt>
      <trkpt lat="48.37896" lon="2.67366">
        <ele>130.88</ele>
        <time>2015-06-04T07:36:07Z</time>
      </trkpt>
      <trkpt lat="48.37897" lon="2.67365">
        <ele>130.88</ele>
        <time>2015-06-04T07:36:30Z</time>
      </trkpt>
      <trkpt lat="48.37897" lon="2.67359">
        <ele>130.4</ele>
        <time>2015-06-04T07:36:52Z</time>
      </trkpt>
      <trkpt lat="48.37898" lon="2.67357">
        <ele>129.92</ele>
        <time>2015-06-04T07:37:07Z</time>
      </trkpt>
      <trkpt lat="48.379" lon="2.67346">
        <ele>129.43</ele>
        <time>2015-06-04T07:37:20Z</time>
      </trkpt>
      <trkpt lat="48.379" lon="2.67341">
        <ele>129.43</ele>
        <time>2015-06-04T07:37:34Z</time>
      </trkpt>
      <trkpt lat="48.37905" lon="2.6733">
        <ele>130.4</ele>
        <time>2015-06-04T07:37:45Z</time>
      </trkpt>
      <trkpt lat="48.37907" lon="2.67329">
        <ele>129.43</ele>
        <time>2015-06-04T07:38:00Z</time>
      </trkpt>
      <trkpt lat="48.37908" lon="2.67326">
        <ele>129.43</ele>
        <time>2015-06-04T07:38:02Z</time>
      </trkpt>
      <trkpt lat="48.3791" lon="2.67324">
        <ele>128.95</ele>
        <time>2015-06-04T07:38:04Z</time>
      </trkpt>
      <trkpt lat="48.37913" lon="2.67317">
        <ele>127.99</ele>
        <time>2015-06-04T07:38:16Z</time>
      </trkpt>
      <trkpt lat="48.37915" lon="2.67313">
        <ele>127.99</ele>
        <time>2015-06-04T07:38:27Z</time>
      </trkpt>
      <trkpt lat="48.37918" lon="2.67312">
        <ele>127.51</ele>
        <time>2015-06-04T07:38:39Z</time>
      </trkpt>
      <trkpt lat="48.37927" lon="2.67302">
        <ele>126.55</ele>
        <time>2015-06-04T07:38:52Z</time>
      </trkpt>
      <trkpt lat="48.3793" lon="2.67298">
        <ele>127.51</ele>
        <time>2015-06-04T07:39:04Z</time>
      </trkpt>
      <trkpt lat="48.37935" lon="2.67294">
        <ele>127.51</ele>
        <time>2015-06-04T07:39:16Z</time>
      </trkpt>
      <trkpt lat="48.37935" lon="2.67293">
        <ele>126.55</ele>
        <time>2015-06-04T07:39:34Z</time>
      </trkpt>
      <trkpt lat="48.37935" lon="2.67294">
        <ele>127.03</ele>
        <time>2015-06-04T07:39:45Z</time>
      </trkpt>
      <trkpt lat="48.37935" lon="2.67289">
        <ele>127.03</ele>
        <time>2015-06-04T07:39:49Z</time>
      </trkpt>
      <trkpt lat="48.37942" lon="2.67285">
        <ele>126.55</ele>
        <time>2015-06-04T07:40:02Z</time>
      </trkpt>
      <trkpt lat="48.37943" lon="2.67283">
        <ele>127.03</ele>
        <time>2015-06-04T07:40:04Z</time>
      </trkpt>
      <trkpt lat="48.37945" lon="2.67268">
        <ele>127.51</ele>
        <time>2015-06-04T07:40:16Z</time>
      </trkpt>
      <trkpt lat="48.37945" lon="2.67257">
        <ele>126.55</ele>
        <time>2015-06-04T07:40:27Z</time>
      </trkpt>
      <trkpt lat="48.37947" lon="2.67263">
        <ele>127.51</ele>
        <time>2015-06-04T07:40:41Z</time>
      </trkpt>
      <trkpt lat="48.3795" lon="2.67255">
        <ele>126.07</ele>
        <time>2015-06-04T07:40:55Z</time>
      </trkpt>
      <trkpt lat="48.37954" lon="2.67242">
        <ele>126.07</ele>
        <time>2015-06-04T07:41:07Z</time>
      </trkpt>
      <trkpt lat="48.37954" lon="2.67235">
        <ele>126.07</ele>
        <time>2015-06-04T07:41:19Z</time>
      </trkpt>
      <trkpt lat="48.37964" lon="2.67223">
        <ele>127.51</ele>
        <time>2015-06-04T07:41:33Z</time>
      </trkpt>
      <trkpt lat="48.3797" lon="2.67223">
        <ele>127.99</ele>
        <time>2015-06-04T07:41:48Z</time>
      </trkpt>
      <trkpt lat="48.37971" lon="2.67226">
        <ele>127.99</ele>
        <time>2015-06-04T07:42:02Z</time>
      </trkpt>
      <trkpt lat="48.37974" lon="2.67227">
        <ele>127.03</ele>
        <time>2015-06-04T07:42:16Z</time>
      </trkpt>
      <trkpt lat="48.37975" lon="2.67224">
        <ele>126.55</ele>
        <time>2015-06-04T07:42:31Z</time>
      </trkpt>
      <trkpt lat="48.37981" lon="2.67218">
        <ele>124.63</ele>
        <time>2015-06-04T07:42:46Z</time>
      </trkpt>
      <trkpt lat="48.37981" lon="2.67217">
        <ele>124.15</ele>
        <time>2015-06-04T07:42:47Z</time>
      </trkpt>
      <trkpt lat="48.37985" lon="2.6721">
        <ele>123.67</ele>
        <time>2015-06-04T07:42:58Z</time>
      </trkpt>
      <trkpt lat="48.37988" lon="2.67204">
        <ele>121.74</ele>
        <time>2015-06-04T07:43:18Z</time>
      </trkpt>
      <trkpt lat="48.3799" lon="2.67203">
        <ele>122.71</ele>
        <time>2015-06-04T07:43:36Z</time>
      </trkpt>
      <trkpt lat="48.37986" lon="2.67203">
        <ele>122.22</ele>
        <time>2015-06-04T07:43:46Z</time>
      </trkpt>
      <trkpt lat="48.37985" lon="2.67193">
        <ele>121.26</ele>
        <time>2015-06-04T07:44:05Z</time>
      </trkpt>
      <trkpt lat="48.37985" lon="2.67191">
        <ele>120.3</ele>
        <time>2015-06-04T07:44:17Z</time>
      </trkpt>
      <trkpt lat="48.37986" lon="2.67189">
        <ele>120.3</ele>
        <time>2015-06-04T07:44:31Z</time>
      </trkpt>
      <trkpt lat="48.37989" lon="2.67182">
        <ele>119.82</ele>
        <time>2015-06-04T07:44:45Z</time>
      </trkpt>
      <trkpt lat="48.37994" lon="2.67176">
        <ele>117.9</ele>
        <time>2015-06-04T07:45:02Z</time>
      </trkpt>
      <trkpt lat="48.37992" lon="2.67171">
        <ele>117.42</ele>
        <time>2015-06-04T07:45:19Z</time>
      </trkpt>
      <trkpt lat="48.37991" lon="2.6717">
        <ele>118.86</ele>
        <time>2015-06-04T07:45:34Z</time>
      </trkpt>
      <trkpt lat="48.3799" lon="2.67165">
        <ele>117.9</ele>
        <time>2015-06-04T07:45:49Z</time>
      </trkpt>
      <trkpt lat="48.37984" lon="2.67168">
        <ele>117.42</ele>
        <time>2015-06-04T07:45:59Z</time>
      </trkpt>
      <trkpt lat="48.37987" lon="2.67159">
        <ele>116.46</ele>
        <time>2015-06-04T07:46:16Z</time>
      </trkpt>
      <trkpt lat="48.37983" lon="2.67152">
        <ele>115.01</ele>
        <time>2015-06-04T07:46:29Z</time>
      </trkpt>
      <trkpt lat="48.37982" lon="2.67149">
        <ele>113.09</ele>
        <time>2015-06-04T07:46:44Z</time>
      </trkpt>
      <trkpt lat="48.3798" lon="2.6715">
        <ele>112.13</ele>
        <time>2015-06-04T07:47:01Z</time>
      </trkpt>
      <trkpt lat="48.37975" lon="2.67151">
        <ele>111.17</ele>
        <time>2015-06-04T07:47:16Z</time>
      </trkpt>
      <trkpt lat="48.37972" lon="2.67142">
        <ele>108.29</ele>
        <time>2015-06-04T07:47:29Z</time>
      </trkpt>
      <trkpt lat="48.37969" lon="2.67124">
        <ele>107.32</ele>
        <time>2015-06-04T07:47:39Z</time>
      </trkpt>
      <trkpt lat="48.37969" lon="2.67105">
        <ele>108.29</ele>
        <time>2015-06-04T07:47:52Z</time>
      </trkpt>
      <trkpt lat="48.37968" lon="2.67103">
        <ele>108.77</ele>
        <time>2015-06-04T07:47:54Z</time>
      </trkpt>
      <trkpt lat="48.37971" lon="2.67094">
        <ele>110.69</ele>
        <time>2015-06-04T07:48:06Z</time>
      </trkpt>
      <trkpt lat="48.37972" lon="2.67089">
        <ele>112.13</ele>
        <time>2015-06-04T07:48:21Z</time>
      </trkpt>
      <trkpt lat="48.37977" lon="2.67085">
        <ele>113.57</ele>
        <time>2015-06-04T07:48:28Z</time>
      </trkpt>
      <trkpt lat="48.37983" lon="2.67081">
        <ele>115.5</ele>
        <time>2015-06-04T07:48:43Z</time>
      </trkpt>
      <trkpt lat="48.37982" lon="2.6707">
        <ele>116.94</ele>
        <time>2015-06-04T07:48:55Z</time>
      </trkpt>
      <trkpt lat="48.37982" lon="2.67068">
        <ele>117.9</ele>
        <time>2015-06-04T07:49:12Z</time>
      </trkpt>
      <trkpt lat="48.3798" lon="2.67068">
        <ele>117.42</ele>
        <time>2015-06-04T07:49:33Z</time>
      </trkpt>
      <trkpt lat="48.3798" lon="2.67067">
        <ele>116.46</ele>
        <time>2015-06-04T07:50:42Z</time>
      </trkpt>
      <trkpt lat="48.37982" lon="2.67066">
        <ele>117.9</ele>
        <time>2015-06-04T07:51:01Z</time>
      </trkpt>
      <trkpt lat="48.37978" lon="2.67068">
        <ele>117.9</ele>
        <time>2015-06-04T07:51:15Z</time>
      </trkpt>
      <trkpt lat="48.37972" lon="2.67059">
        <ele>120.3</ele>
        <time>2015-06-04T07:51:30Z</time>
      </trkpt>
      <trkpt lat="48.37963" lon="2.67058">
        <ele>121.26</ele>
        <time>2015-06-04T07:51:45Z</time>
      </trkpt>
      <trkpt lat="48.37952" lon="2.67052">
        <ele>122.22</ele>
        <time>2015-06-04T07:51:56Z</time>
      </trkpt>
      <trkpt lat="48.37951" lon="2.67043">
        <ele>122.71</ele>
        <time>2015-06-04T07:52:13Z</time>
      </trkpt>
      <trkpt lat="48.37951" lon="2.67032">
        <ele>124.63</ele>
        <time>2015-06-04T07:52:24Z</time>
      </trkpt>
      <trkpt lat="48.37956" lon="2.67027">
        <ele>126.07</ele>
        <time>2015-06-04T07:52:41Z</time>
      </trkpt>
      <trkpt lat="48.3796" lon="2.67033">
        <ele>126.07</ele>
        <time>2015-06-04T07:52:54Z</time>
      </trkpt>
      <trkpt lat="48.37962" lon="2.6703">
        <ele>126.07</ele>
        <time>2015-06-04T07:53:07Z</time>
      </trkpt>
      <trkpt lat="48.37966" lon="2.67027">
        <ele>125.11</ele>
        <time>2015-06-04T07:53:25Z</time>
      </trkpt>
      <trkpt lat="48.37964" lon="2.67021">
        <ele>126.07</ele>
        <time>2015-06-04T07:53:44Z</time>
      </trkpt>
      <trkpt lat="48.37955" lon="2.67014">
        <ele>126.07</ele>
        <time>2015-06-04T07:53:57Z</time>
      </trkpt>
      <trkpt lat="48.37951" lon="2.67012">
        <ele>126.07</ele>
        <time>2015-06-04T07:54:12Z</time>
      </trkpt>
      <trkpt lat="48.37948" lon="2.67011">
        <ele>125.59</ele>
        <time>2015-06-04T07:54:24Z</time>
      </trkpt>
      <trkpt lat="48.37944" lon="2.67017">
        <ele>124.15</ele>
        <time>2015-06-04T07:54:41Z</time>
      </trkpt>
      <trkpt lat="48.37946" lon="2.67016">
        <ele>123.67</ele>
        <time>2015-06-04T07:54:57Z</time>
      </trkpt>
      <trkpt lat="48.37942" lon="2.67019">
        <ele>124.15</ele>
        <time>2015-06-04T07:55:03Z</time>
      </trkpt>
      <trkpt lat="48.37933" lon="2.67012">
        <ele>125.11</ele>
        <time>2015-06-04T07:55:16Z</time>
      </trkpt>
      <trkpt lat="48.3793" lon="2.67007">
        <ele>127.03</ele>
        <time>2015-06-04T07:55:27Z</time>
      </trkpt>
      <trkpt lat="48.37924" lon="2.67007">
        <ele>127.99</ele>
        <time>2015-06-04T07:55:43Z</time>
      </trkpt>
      <trkpt lat="48.37924" lon="2.67006">
        <ele>127.99</ele>
        <time>2015-06-04T07:55:59Z</time>
      </trkpt>
      <trkpt lat="48.37917" lon="2.67008">
        <ele>127.03</ele>
        <time>2015-06-04T07:56:13Z</time>
      </trkpt>
      <trkpt lat="48.37913" lon="2.6701">
        <ele>126.07</ele>
        <time>2015-06-04T07:56:20Z</time>
      </trkpt>
      <trkpt lat="48.3791" lon="2.67007">
        <ele>127.03</ele>
        <time>2015-06-04T07:56:30Z</time>
      </trkpt>
      <trkpt lat="48.37899" lon="2.67005">
        <ele>125.59</ele>
        <time>2015-06-04T07:56:51Z</time>
      </trkpt>
      <trkpt lat="48.37893" lon="2.67002">
        <ele>127.03</ele>
        <time>2015-06-04T07:57:03Z</time>
      </trkpt>
      <trkpt lat="48.37891" lon="2.66997">
        <ele>128.95</ele>
        <time>2015-06-04T07:57:15Z</time>
      </trkpt>
      <trkpt lat="48.37889" lon="2.66989">
        <ele>129.43</ele>
        <time>2015-06-04T07:57:34Z</time>
      </trkpt>
      <trkpt lat="48.37889" lon="2.66984">
        <ele>126.55</ele>
        <time>2015-06-04T07:57:53Z</time>
      </trkpt>
      <trkpt lat="48.37884" lon="2.66981">
        <ele>126.07</ele>
        <time>2015-06-04T07:58:03Z</time>
      </trkpt>
      <trkpt lat="48.37881" lon="2.66982">
        <ele>125.59</ele>
        <time>2015-06-04T07:58:19Z</time>
      </trkpt>
      <trkpt lat="48.37879" lon="2.66984">
        <ele>124.63</ele>
        <time>2015-06-04T07:58:34Z</time>
      </trkpt>
      <trkpt lat="48.37878" lon="2.66986">
        <ele>124.63</ele>
        <time>2015-06-04T07:58:40Z</time>
      </trkpt>
      <trkpt lat="48.37871" lon="2.66986">
        <ele>122.71</ele>
        <time>2015-06-04T07:58:52Z</time>
      </trkpt>
      <trkpt lat="48.37871" lon="2.67002">
        <ele>125.11</ele>
        <time>2015-06-04T07:59:06Z</time>
      </trkpt>
      <trkpt lat="48.37873" lon="2.6701">
        <ele>126.55</ele>
        <time>2015-06-04T07:59:16Z</time>
      </trkpt>
      <trkpt lat="48.37877" lon="2.67023">
        <ele>124.15</ele>
        <time>2015-06-04T07:59:29Z</time>
      </trkpt>
      <trkpt lat="48.37878" lon="2.67033">
        <ele>125.11</ele>
        <time>2015-06-04T07:59:40Z</time>
      </trkpt>
      <trkpt lat="48.37878" lon="2.67037">
        <ele>124.63</ele>
        <time>2015-06-04T08:00:01Z</time>
      </trkpt>
      <trkpt lat="48.37876" lon="2.67067">
        <ele>125.11</ele>
        <time>2015-06-04T08:00:13Z</time>
      </trkpt>
      <trkpt lat="48.37876" lon="2.67076">
        <ele>124.63</ele>
        <time>2015-06-04T08:00:24Z</time>
      </trkpt>
      <trkpt lat="48.37868" lon="2.67082">
        <ele>124.15</ele>
        <time>2015-06-04T08:00:35Z</time>
      </trkpt>
      <trkpt lat="48.37867" lon="2.67085">
        <ele>123.19</ele>
        <time>2015-06-04T08:00:51Z</time>
      </trkpt>
      <trkpt lat="48.37866" lon="2.67086">
        <ele>123.19</ele>
        <time>2015-06-04T08:00:53Z</time>
      </trkpt>
      <trkpt lat="48.37862" lon="2.67098">
        <ele>123.19</ele>
        <time>2015-06-04T08:01:05Z</time>
      </trkpt>
      <trkpt lat="48.37863" lon="2.67106">
        <ele>124.15</ele>
        <time>2015-06-04T08:01:16Z</time>
      </trkpt>
      <trkpt lat="48.3787" lon="2.67118">
        <ele>123.67</ele>
        <time>2015-06-04T08:01:28Z</time>
      </trkpt>
      <trkpt lat="48.37869" lon="2.67119">
        <ele>123.67</ele>
        <time>2015-06-04T08:01:43Z</time>
      </trkpt>
      <trkpt lat="48.37868" lon="2.67123">
        <ele>123.67</ele>
        <time>2015-06-04T08:02:12Z</time>
      </trkpt>
      <trkpt lat="48.3787" lon="2.67133">
        <ele>124.15</ele>
        <time>2015-06-04T08:02:26Z</time>
      </trkpt>
      <trkpt lat="48.37873" lon="2.67156">
        <ele>123.19</ele>
        <time>2015-06-04T08:02:41Z</time>
      </trkpt>
      <trkpt lat="48.37871" lon="2.67166">
        <ele>124.15</ele>
        <time>2015-06-04T08:02:58Z</time>
      </trkpt>
      <trkpt lat="48.37865" lon="2.6717">
        <ele>125.11</ele>
        <time>2015-06-04T08:03:07Z</time>
      </trkpt>
      <trkpt lat="48.37869" lon="2.67179">
        <ele>126.07</ele>
        <time>2015-06-04T08:03:20Z</time>
      </trkpt>
      <trkpt lat="48.37874" lon="2.67185">
        <ele>124.15</ele>
        <time>2015-06-04T08:03:32Z</time>
      </trkpt>
      <trkpt lat="48.37875" lon="2.6719">
        <ele>124.63</ele>
        <time>2015-06-04T08:03:35Z</time>
      </trkpt>
      <trkpt lat="48.37878" lon="2.67197">
        <ele>124.63</ele>
        <time>2015-06-04T08:03:39Z</time>
      </trkpt>
      <trkpt lat="48.37878" lon="2.67212">
        <ele>125.59</ele>
        <time>2015-06-04T08:03:52Z</time>
      </trkpt>
      <trkpt lat="48.37878" lon="2.67217">
        <ele>125.11</ele>
        <time>2015-06-04T08:04:04Z</time>
      </trkpt>
      <trkpt lat="48.37877" lon="2.67226">
        <ele>123.67</ele>
        <time>2015-06-04T08:04:15Z</time>
      </trkpt>
      <trkpt lat="48.37878" lon="2.67228">
        <ele>123.67</ele>
        <time>2015-06-04T08:04:34Z</time>
      </trkpt>
      <trkpt lat="48.37876" lon="2.6723">
        <ele>122.71</ele>
        <time>2015-06-04T08:04:51Z</time>
      </trkpt>
      <trkpt lat="48.37877" lon="2.6723">
        <ele>122.22</ele>
        <time>2015-06-04T08:05:22Z</time>
      </trkpt>
      <trkpt lat="48.37878" lon="2.6723">
        <ele>123.19</ele>
        <time>2015-06-04T08:05:56Z</time>
      </trkpt>
      <trkpt lat="48.3788" lon="2.67234">
        <ele>122.71</ele>
        <time>2015-06-04T08:06:12Z</time>
      </trkpt>
      <trkpt lat="48.37882" lon="2.67227">
        <ele>121.74</ele>
        <time>2015-06-04T08:06:27Z</time>
      </trkpt>
      <trkpt lat="48.37882" lon="2.67218">
        <ele>121.26</ele>
        <time>2015-06-04T08:06:40Z</time>
      </trkpt>
      <trkpt lat="48.37882" lon="2.6722">
        <ele>120.78</ele>
        <time>2015-06-04T08:07:01Z</time>
      </trkpt>
      <trkpt lat="48.37883" lon="2.67218">
        <ele>120.3</ele>
        <time>2015-06-04T08:07:20Z</time>
      </trkpt>
      <trkpt lat="48.37887" lon="2.67208">
        <ele>118.86</ele>
        <time>2015-06-04T08:07:34Z</time>
      </trkpt>
      <trkpt lat="48.3789" lon="2.67203">
        <ele>118.38</ele>
        <time>2015-06-04T08:07:42Z</time>
      </trkpt>
      <trkpt lat="48.37885" lon="2.67182">
        <ele>117.42</ele>
        <time>2015-06-04T08:07:54Z</time>
      </trkpt>
      <trkpt lat="48.37894" lon="2.67164">
        <ele>115.5</ele>
        <time>2015-06-04T08:08:10Z</time>
      </trkpt>
      <trkpt lat="48.379" lon="2.67152">
        <ele>114.05</ele>
        <time>2015-06-04T08:08:21Z</time>
      </trkpt>
      <trkpt lat="48.37903" lon="2.6714">
        <ele>112.13</ele>
        <time>2015-06-04T08:08:33Z</time>
      </trkpt>
      <trkpt lat="48.37908" lon="2.67126">
        <ele>110.21</ele>
        <time>2015-06-04T08:08:43Z</time>
      </trkpt>
      <trkpt lat="48.37913" lon="2.67119">
        <ele>109.73</ele>
        <time>2015-06-04T08:08:55Z</time>
      </trkpt>
      <trkpt lat="48.37916" lon="2.67121">
        <ele>108.29</ele>
        <time>2015-06-04T08:08:59Z</time>
      </trkpt>
      <trkpt lat="48.37923" lon="2.67127">
        <ele>106.84</ele>
        <time>2015-06-04T08:09:10Z</time>
      </trkpt>
      <trkpt lat="48.37936" lon="2.67136">
        <ele>104.92</ele>
        <time>2015-06-04T08:09:24Z</time>
      </trkpt>
      <trkpt lat="48.37944" lon="2.67151">
        <ele>104.92</ele>
        <time>2015-06-04T08:09:37Z</time>
      </trkpt>
      <trkpt lat="48.37951" lon="2.67169">
        <ele>104.92</ele>
        <time>2015-06-04T08:09:52Z</time>
      </trkpt>
      <trkpt lat="48.37952" lon="2.67172">
        <ele>104.44</ele>
        <time>2015-06-04T08:10:12Z</time>
      </trkpt>
      <trkpt lat="48.37954" lon="2.67173">
        <ele>105.88</ele>
        <time>2015-06-04T08:10:29Z</time>
      </trkpt>
      <trkpt lat="48.3796" lon="2.67172">
        <ele>107.32</ele>
        <time>2015-06-04T08:10:41Z</time>
      </trkpt>
      <trkpt lat="48.37962" lon="2.67167">
        <ele>106.84</ele>
        <time>2015-06-04T08:10:55Z</time>
      </trkpt>
      <trkpt lat="48.37963" lon="2.67156">
        <ele>104.92</ele>
        <time>2015-06-04T08:11:10Z</time>
      </trkpt>
      <trkpt lat="48.37962" lon="2.67142">
        <ele>103.96</ele>
        <time>2015-06-04T08:11:21Z</time>
      </trkpt>
      <trkpt lat="48.37967" lon="2.67136">
        <ele>103.96</ele>
        <time>2015-06-04T08:11:26Z</time>
      </trkpt>
      <trkpt lat="48.37973" lon="2.67119">
        <ele>103.96</ele>
        <time>2015-06-04T08:11:39Z</time>
      </trkpt>
      <trkpt lat="48.37974" lon="2.67113">
        <ele>103.48</ele>
        <time>2015-06-04T08:11:51Z</time>
      </trkpt>
      <trkpt lat="48.37976" lon="2.67112">
        <ele>103.48</ele>
        <time>2015-06-04T08:12:16Z</time>
      </trkpt>
      <trkpt lat="48.37981" lon="2.67109">
        <ele>101.56</ele>
        <time>2015-06-04T08:12:25Z</time>
      </trkpt>
      <trkpt lat="48.37991" lon="2.67103">
        <ele>99.63</ele>
        <time>2015-06-04T08:12:37Z</time>
      </trkpt>
      <trkpt lat="48.37999" lon="2.6711">
        <ele>96.75</ele>
        <time>2015-06-04T08:12:51Z</time>
      </trkpt>
      <trkpt lat="48.38007" lon="2.67112">
        <ele>95.79</ele>
        <time>2015-06-04T08:13:10Z</time>
      </trkpt>
      <trkpt lat="48.38009" lon="2.67112">
        <ele>95.79</ele>
        <time>2015-06-04T08:13:11Z</time>
      </trkpt>
      <trkpt lat="48.3805" lon="2.67123">
        <ele>94.83</ele>
        <time>2015-06-04T08:13:27Z</time>
      </trkpt>
      <trkpt lat="48.38057" lon="2.67126">
        <ele>93.39</ele>
        <time>2015-06-04T08:13:40Z</time>
      </trkpt>
      <trkpt lat="48.38063" lon="2.67128">
        <ele>93.39</ele>
        <time>2015-06-04T08:13:45Z</time>
      </trkpt>
      <trkpt lat="48.38077" lon="2.67127">
        <ele>93.39</ele>
        <time>2015-06-04T08:13:59Z</time>
      </trkpt>
      <trkpt lat="48.38085" lon="2.67125">
        <ele>92.9</ele>
        <time>2015-06-04T08:14:17Z</time>
      </trkpt>
      <trkpt lat="48.38092" lon="2.67127">
        <ele>93.87</ele>
        <time>2015-06-04T08:14:24Z</time>
      </trkpt>
      <trkpt lat="48.38094" lon="2.67127">
        <ele>93.87</ele>
        <time>2015-06-04T08:14:26Z</time>
      </trkpt>
      <trkpt lat="48.38112" lon="2.67119">
        <ele>94.35</ele>
        <time>2015-06-04T08:14:40Z</time>
      </trkpt>
      <trkpt lat="48.38113" lon="2.67118">
        <ele>94.83</ele>
        <time>2015-06-04T08:14:47Z</time>
      </trkpt>
      <trkpt lat="48.38134" lon="2.67112">
        <ele>95.79</ele>
        <time>2015-06-04T08:14:59Z</time>
      </trkpt>
      <trkpt lat="48.3815" lon="2.67109">
        <ele>96.27</ele>
        <time>2015-06-04T08:15:12Z</time>
      </trkpt>
      <trkpt lat="48.38153" lon="2.67107">
        <ele>96.27</ele>
        <time>2015-06-04T08:15:17Z</time>
      </trkpt>
      <trkpt lat="48.38158" lon="2.67104">
        <ele>95.79</ele>
        <time>2015-06-04T08:15:21Z</time>
      </trkpt>
      <trkpt lat="48.38184" lon="2.67092">
        <ele>95.31</ele>
        <time>2015-06-04T08:15:36Z</time>
      </trkpt>
      <trkpt lat="48.38186" lon="2.67091">
        <ele>94.83</ele>
        <time>2015-06-04T08:15:37Z</time>
      </trkpt>
      <trkpt lat="48.38193" lon="2.67086">
        <ele>95.31</ele>
        <time>2015-06-04T08:15:44Z</time>
      </trkpt>
      <trkpt lat="48.38203" lon="2.67083">
        <ele>94.83</ele>
        <time>2015-06-04T08:15:52Z</time>
      </trkpt>
      <trkpt lat="48.38227" lon="2.67073">
        <ele>95.31</ele>
        <time>2015-06-04T08:16:06Z</time>
      </trkpt>
      <trkpt lat="48.38228" lon="2.67073">
        <ele>95.31</ele>
        <time>2015-06-04T08:16:07Z</time>
      </trkpt>
      <trkpt lat="48.38244" lon="2.67064">
        <ele>96.27</ele>
        <time>2015-06-04T08:16:19Z</time>
      </trkpt>
      <trkpt lat="48.38257" lon="2.67058">
        <ele>96.27</ele>
        <time>2015-06-04T08:16:29Z</time>
      </trkpt>
      <trkpt lat="48.38263" lon="2.67055">
        <ele>96.27</ele>
        <time>2015-06-04T08:16:33Z</time>
      </trkpt>
      <trkpt lat="48.38271" lon="2.67052">
        <ele>96.75</ele>
        <time>2015-06-04T08:16:40Z</time>
      </trkpt>
      <trkpt lat="48.3829" lon="2.67047">
        <ele>97.23</ele>
        <time>2015-06-04T08:16:53Z</time>
      </trkpt>
      <trkpt lat="48.38297" lon="2.67047">
        <ele>96.75</ele>
        <time>2015-06-04T08:17:06Z</time>
      </trkpt>
      <trkpt lat="48.38304" lon="2.67053">
        <ele>96.27</ele>
        <time>2015-06-04T08:17:18Z</time>
      </trkpt>
      <trkpt lat="48.38332" lon="2.67065">
        <ele>96.27</ele>
        <time>2015-06-04T08:17:32Z</time>
      </trkpt>
      <trkpt lat="48.38362" lon="2.67073">
        <ele>96.27</ele>
        <time>2015-06-04T08:17:46Z</time>
      </trkpt>
      <trkpt lat="48.38383" lon="2.6708">
        <ele>96.27</ele>
        <time>2015-06-04T08:17:57Z</time>
      </trkpt>
      <trkpt lat="48.38389" lon="2.67086">
        <ele>96.75</ele>
        <time>2015-06-04T08:18:03Z</time>
      </trkpt>
      <trkpt lat="48.38392" lon="2.67089">
        <ele>96.75</ele>
        <time>2015-06-04T08:18:05Z</time>
      </trkpt>
      <trkpt lat="48.38399" lon="2.67096">
        <ele>96.27</ele>
        <time>2015-06-04T08:18:16Z</time>
      </trkpt>
      <trkpt lat="48.38405" lon="2.67108">
        <ele>95.31</ele>
        <time>2015-06-04T08:18:28Z</time>
      </trkpt>
      <trkpt lat="48.38424" lon="2.67119">
        <ele>94.83</ele>
        <time>2015-06-04T08:18:42Z</time>
      </trkpt>
      <trkpt lat="48.38448" lon="2.67112">
        <ele>93.87</ele>
        <time>2015-06-04T08:18:57Z</time>
      </trkpt>
      <trkpt lat="48.38453" lon="2.67134">
        <ele>94.83</ele>
        <time>2015-06-04T08:19:10Z</time>
      </trkpt>
      <trkpt lat="48.38458" lon="2.67142">
        <ele>94.83</ele>
        <time>2015-06-04T08:19:14Z</time>
      </trkpt>
      <trkpt lat="48.38473" lon="2.67153">
        <ele>90.98</ele>
        <time>2015-06-04T08:19:22Z</time>
      </trkpt>
      <trkpt lat="48.38475" lon="2.67155">
        <ele>95.31</ele>
        <time>2015-06-04T08:19:23Z</time>
      </trkpt>
      <trkpt lat="48.38484" lon="2.67169">
        <ele>96.75</ele>
        <time>2015-06-04T08:19:37Z</time>
      </trkpt>
      <trkpt lat="48.38485" lon="2.67172">
        <ele>94.35</ele>
        <time>2015-06-04T08:19:38Z</time>
      </trkpt>
      <trkpt lat="48.38488" lon="2.67185">
        <ele>99.63</ele>
        <time>2015-06-04T08:19:44Z</time>
      </trkpt>
      <trkpt lat="48.38488" lon="2.67186">
        <ele>95.79</ele>
        <time>2015-06-04T08:19:45Z</time>
      </trkpt>
      <trkpt lat="48.38496" lon="2.67204">
        <ele>95.79</ele>
        <time>2015-06-04T08:19:57Z</time>
      </trkpt>
      <trkpt lat="48.38503" lon="2.67221">
        <ele>95.79</ele>
        <time>2015-06-04T08:20:06Z</time>
      </trkpt>
      <trkpt lat="48.38515" lon="2.67247">
        <ele>94.83</ele>
        <time>2015-06-04T08:20:22Z</time>
      </trkpt>
      <trkpt lat="48.38515" lon="2.67251">
        <ele>94.83</ele>
        <time>2015-06-04T08:20:24Z</time>
      </trkpt>
      <trkpt lat="48.38519" lon="2.67262">
        <ele>94.83</ele>
        <time>2015-06-04T08:20:31Z</time>
      </trkpt>
      <trkpt lat="48.38523" lon="2.67272">
        <ele>94.35</ele>
        <time>2015-06-04T08:20:38Z</time>
      </trkpt>
      <trkpt lat="48.38522" lon="2.67276">
        <ele>94.35</ele>
        <time>2015-06-04T08:20:41Z</time>
      </trkpt>
      <trkpt lat="48.38524" lon="2.67294">
        <ele>95.31</ele>
        <time>2015-06-04T08:20:49Z</time>
      </trkpt>
      <trkpt lat="48.38539" lon="2.67313">
        <ele>95.79</ele>
        <time>2015-06-04T08:21:00Z</time>
      </trkpt>
      <trkpt lat="48.38546" lon="2.67328">
        <ele>96.27</ele>
        <time>2015-06-04T08:21:08Z</time>
      </trkpt>
      <trkpt lat="48.38548" lon="2.67342">
        <ele>96.27</ele>
        <time>2015-06-04T08:21:14Z</time>
      </trkpt>
      <trkpt lat="48.38551" lon="2.6737">
        <ele>96.27</ele>
        <time>2015-06-04T08:21:28Z</time>
      </trkpt>
      <trkpt lat="48.38554" lon="2.6739">
        <ele>95.79</ele>
        <time>2015-06-04T08:21:38Z</time>
      </trkpt>
      <trkpt lat="48.38553" lon="2.67399">
        <ele>95.79</ele>
        <time>2015-06-04T08:21:42Z</time>
      </trkpt>
      <trkpt lat="48.3856" lon="2.67421">
        <ele>95.79</ele>
        <time>2015-06-04T08:21:53Z</time>
      </trkpt>
      <trkpt lat="48.38571" lon="2.67436">
        <ele>95.79</ele>
        <time>2015-06-04T08:22:02Z</time>
      </trkpt>
      <trkpt lat="48.38573" lon="2.6744">
        <ele>96.27</ele>
        <time>2015-06-04T08:22:04Z</time>
      </trkpt>
      <trkpt lat="48.38582" lon="2.67451">
        <ele>97.23</ele>
        <time>2015-06-04T08:22:16Z</time>
      </trkpt>
      <trkpt lat="48.38585" lon="2.67459">
        <ele>97.23</ele>
        <time>2015-06-04T08:22:20Z</time>
      </trkpt>
      <trkpt lat="48.38589" lon="2.67467">
        <ele>97.71</ele>
        <time>2015-06-04T08:22:25Z</time>
      </trkpt>
      <trkpt lat="48.38593" lon="2.67481">
        <ele>98.19</ele>
        <time>2015-06-04T08:22:35Z</time>
      </trkpt>
      <trkpt lat="48.38603" lon="2.675">
        <ele>99.63</ele>
        <time>2015-06-04T08:22:49Z</time>
      </trkpt>
      <trkpt lat="48.38613" lon="2.67512">
        <ele>102.04</ele>
        <time>2015-06-04T08:23:02Z</time>
      </trkpt>
      <trkpt lat="48.38616" lon="2.67515">
        <ele>102.04</ele>
        <time>2015-06-04T08:23:04Z</time>
      </trkpt>
      <trkpt lat="48.3862" lon="2.67525">
        <ele>103</ele>
        <time>2015-06-04T08:23:12Z</time>
      </trkpt>
      <trkpt lat="48.38621" lon="2.6753">
        <ele>103.48</ele>
        <time>2015-06-04T08:23:15Z</time>
      </trkpt>
      <trkpt lat="48.38629" lon="2.67559">
        <ele>105.88</ele>
        <time>2015-06-04T08:23:31Z</time>
      </trkpt>
      <trkpt lat="48.38629" lon="2.67579">
        <ele>107.81</ele>
        <time>2015-06-04T08:23:45Z</time>
      </trkpt>
      <trkpt lat="48.38629" lon="2.6759">
        <ele>109.25</ele>
        <time>2015-06-04T08:23:56Z</time>
      </trkpt>
      <trkpt lat="48.38629" lon="2.67592">
        <ele>109.73</ele>
        <time>2015-06-04T08:23:58Z</time>
      </trkpt>
      <trkpt lat="48.38631" lon="2.67601">
        <ele>110.69</ele>
        <time>2015-06-04T08:24:04Z</time>
      </trkpt>
      <trkpt lat="48.38636" lon="2.67622">
        <ele>112.61</ele>
        <time>2015-06-04T08:24:17Z</time>
      </trkpt>
      <trkpt lat="48.38647" lon="2.67637">
        <ele>113.57</ele>
        <time>2015-06-04T08:24:29Z</time>
      </trkpt>
      <trkpt lat="48.38652" lon="2.67656">
        <ele>115.01</ele>
        <time>2015-06-04T08:24:44Z</time>
      </trkpt>
      <trkpt lat="48.38655" lon="2.67668">
        <ele>115.5</ele>
        <time>2015-06-04T08:24:57Z</time>
      </trkpt>
      <trkpt lat="48.38654" lon="2.67672">
        <ele>115.01</ele>
        <time>2015-06-04T08:25:27Z</time>
      </trkpt>
      <trkpt lat="48.38656" lon="2.67682">
        <ele>114.53</ele>
        <time>2015-06-04T08:25:59Z</time>
      </trkpt>
      <trkpt lat="48.38663" lon="2.67687">
        <ele>114.53</ele>
        <time>2015-06-04T08:26:21Z</time>
      </trkpt>
      <trkpt lat="48.38655" lon="2.67692">
        <ele>115.98</ele>
        <time>2015-06-04T08:26:49Z</time>
      </trkpt>
      <trkpt lat="48.38654" lon="2.67694">
        <ele>118.38</ele>
        <time>2015-06-04T08:27:04Z</time>
      </trkpt>
      <trkpt lat="48.38649" lon="2.67703">
        <ele>121.26</ele>
        <time>2015-06-04T08:27:16Z</time>
      </trkpt>
      <trkpt lat="48.38641" lon="2.67713">
        <ele>122.22</ele>
        <time>2015-06-04T08:27:30Z</time>
      </trkpt>
      <trkpt lat="48.38643" lon="2.67722">
        <ele>124.15</ele>
        <time>2015-06-04T08:27:45Z</time>
      </trkpt>
      <trkpt lat="48.38647" lon="2.67735">
        <ele>124.15</ele>
        <time>2015-06-04T08:27:58Z</time>
      </trkpt>
      <trkpt lat="48.38646" lon="2.67735">
        <ele>123.67</ele>
        <time>2015-06-04T08:28:10Z</time>
      </trkpt>
      <trkpt lat="48.38644" lon="2.67738">
        <ele>124.63</ele>
        <time>2015-06-04T08:28:27Z</time>
      </trkpt>
      <trkpt lat="48.38644" lon="2.67744">
        <ele>125.11</ele>
        <time>2015-06-04T08:28:39Z</time>
      </trkpt>
      <trkpt lat="48.38642" lon="2.67748">
        <ele>125.11</ele>
        <time>2015-06-04T08:28:53Z</time>
      </trkpt>
      <trkpt lat="48.38643" lon="2.67753">
        <ele>125.11</ele>
        <time>2015-06-04T08:29:08Z</time>
      </trkpt>
      <trkpt lat="48.38645" lon="2.67757">
        <ele>124.63</ele>
        <time>2015-06-04T08:29:21Z</time>
      </trkpt>
      <trkpt lat="48.38645" lon="2.67764">
        <ele>123.67</ele>
        <time>2015-06-04T08:29:36Z</time>
      </trkpt>
      <trkpt lat="48.3865" lon="2.67765">
        <ele>125.11</ele>
        <time>2015-06-04T08:29:49Z</time>
      </trkpt>
      <trkpt lat="48.38651" lon="2.67765">
        <ele>125.11</ele>
        <time>2015-06-04T08:29:52Z</time>
      </trkpt>
      <trkpt lat="48.38647" lon="2.67776">
        <ele>125.11</ele>
        <time>2015-06-04T08:30:04Z</time>
      </trkpt>
      <trkpt lat="48.38649" lon="2.67781">
        <ele>126.07</ele>
        <time>2015-06-04T08:30:15Z</time>
      </trkpt>
      <trkpt lat="48.38653" lon="2.6778">
        <ele>125.11</ele>
        <time>2015-06-04T08:30:27Z</time>
      </trkpt>
      <trkpt lat="48.38653" lon="2.67779">
        <ele>124.15</ele>
        <time>2015-06-04T08:30:43Z</time>
      </trkpt>
      <trkpt lat="48.38654" lon="2.67786">
        <ele>124.63</ele>
        <time>2015-06-04T08:30:58Z</time>
      </trkpt>
      <trkpt lat="48.38655" lon="2.67789">
        <ele>122.71</ele>
        <time>2015-06-04T08:31:11Z</time>
      </trkpt>
      <trkpt lat="48.38654" lon="2.67797">
        <ele>124.15</ele>
        <time>2015-06-04T08:31:31Z</time>
      </trkpt>
      <trkpt lat="48.38651" lon="2.67813">
        <ele>124.15</ele>
        <time>2015-06-04T08:31:44Z</time>
      </trkpt>
      <trkpt lat="48.3865" lon="2.67819">
        <ele>122.71</ele>
        <time>2015-06-04T08:32:03Z</time>
      </trkpt>
      <trkpt lat="48.38655" lon="2.67828">
        <ele>120.3</ele>
        <time>2015-06-04T08:32:20Z</time>
      </trkpt>
      <trkpt lat="48.38655" lon="2.67837">
        <ele>119.34</ele>
        <time>2015-06-04T08:32:33Z</time>
      </trkpt>
      <trkpt lat="48.38653" lon="2.67844">
        <ele>116.94</ele>
        <time>2015-06-04T08:32:46Z</time>
      </trkpt>
      <trkpt lat="48.38651" lon="2.67851">
        <ele>115.5</ele>
        <time>2015-06-04T08:33:01Z</time>
      </trkpt>
      <trkpt lat="48.38645" lon="2.67866">
        <ele>113.09</ele>
        <time>2015-06-04T08:33:14Z</time>
      </trkpt>
      <trkpt lat="48.3864" lon="2.67871">
        <ele>110.69</ele>
        <time>2015-06-04T08:33:28Z</time>
      </trkpt>
      <trkpt lat="48.38636" lon="2.67876">
        <ele>110.21</ele>
        <time>2015-06-04T08:33:34Z</time>
      </trkpt>
      <trkpt lat="48.38628" lon="2.67889">
        <ele>109.25</ele>
        <time>2015-06-04T08:33:42Z</time>
      </trkpt>
      <trkpt lat="48.38617" lon="2.67921">
        <ele>109.73</ele>
        <time>2015-06-04T08:33:55Z</time>
      </trkpt>
      <trkpt lat="48.38615" lon="2.6795">
        <ele>109.25</ele>
        <time>2015-06-04T08:34:10Z</time>
      </trkpt>
      <trkpt lat="48.38617" lon="2.67968">
        <ele>111.17</ele>
        <time>2015-06-04T08:34:22Z</time>
      </trkpt>
      <trkpt lat="48.38621" lon="2.67991">
        <ele>111.17</ele>
        <time>2015-06-04T08:34:35Z</time>
      </trkpt>
      <trkpt lat="48.38625" lon="2.67999">
        <ele>111.17</ele>
        <time>2015-06-04T08:34:41Z</time>
      </trkpt>
      <trkpt lat="48.38632" lon="2.68022">
        <ele>111.65</ele>
        <time>2015-06-04T08:34:55Z</time>
      </trkpt>
      <trkpt lat="48.38637" lon="2.68023">
        <ele>111.17</ele>
        <time>2015-06-04T08:35:03Z</time>
      </trkpt>
      <trkpt lat="48.3865" lon="2.68027">
        <ele>111.65</ele>
        <time>2015-06-04T08:35:21Z</time>
      </trkpt>
      <trkpt lat="48.38644" lon="2.68034">
        <ele>111.17</ele>
        <time>2015-06-04T08:35:39Z</time>
      </trkpt>
      <trkpt lat="48.38628" lon="2.68045">
        <ele>111.17</ele>
        <time>2015-06-04T08:35:53Z</time>
      </trkpt>
      <trkpt lat="48.38624" lon="2.68055">
        <ele>110.69</ele>
        <time>2015-06-04T08:36:04Z</time>
      </trkpt>
      <trkpt lat="48.38613" lon="2.68071">
        <ele>109.25</ele>
        <time>2015-06-04T08:36:15Z</time>
      </trkpt>
      <trkpt lat="48.38604" lon="2.68093">
        <ele>107.32</ele>
        <time>2015-06-04T08:36:25Z</time>
      </trkpt>
      <trkpt lat="48.38606" lon="2.68107">
        <ele>103.96</ele>
        <time>2015-06-04T08:36:37Z</time>
      </trkpt>
      <trkpt lat="48.38604" lon="2.68124">
        <ele>102.04</ele>
        <time>2015-06-04T08:36:50Z</time>
      </trkpt>
      <trkpt lat="48.38601" lon="2.68145">
        <ele>101.56</ele>
        <time>2015-06-04T08:37:00Z</time>
      </trkpt>
      <trkpt lat="48.38589" lon="2.68157">
        <ele>101.56</ele>
        <time>2015-06-04T08:37:09Z</time>
      </trkpt>
      <trkpt lat="48.38575" lon="2.68158">
        <ele>99.63</ele>
        <time>2015-06-04T08:37:21Z</time>
      </trkpt>
      <trkpt lat="48.38567" lon="2.6816">
        <ele>98.19</ele>
        <time>2015-06-04T08:37:33Z</time>
      </trkpt>
      <trkpt lat="48.38567" lon="2.68157">
        <ele>98.19</ele>
        <time>2015-06-04T08:37:46Z</time>
      </trkpt>
      <trkpt lat="48.38567" lon="2.68159">
        <ele>98.19</ele>
        <time>2015-06-04T08:38:06Z</time>
      </trkpt>
      <trkpt lat="48.38568" lon="2.68162">
        <ele>98.67</ele>
        <time>2015-06-04T08:38:09Z</time>
      </trkpt>
      <trkpt lat="48.38572" lon="2.68174">
        <ele>100.11</ele>
        <time>2015-06-04T08:38:18Z</time>
      </trkpt>
      <trkpt lat="48.38581" lon="2.68187">
        <ele>103</ele>
        <time>2015-06-04T08:38:29Z</time>
      </trkpt>
      <trkpt lat="48.38581" lon="2.68189">
        <ele>103</ele>
        <time>2015-06-04T08:38:30Z</time>
      </trkpt>
      <trkpt lat="48.38581" lon="2.68193">
        <ele>102.52</ele>
        <time>2015-06-04T08:38:32Z</time>
      </trkpt>
      <trkpt lat="48.3859" lon="2.68213">
        <ele>102.04</ele>
        <time>2015-06-04T08:38:46Z</time>
      </trkpt>
      <trkpt lat="48.38592" lon="2.68214">
        <ele>101.08</ele>
        <time>2015-06-04T08:38:59Z</time>
      </trkpt>
      <trkpt lat="48.38592" lon="2.68218">
        <ele>101.08</ele>
        <time>2015-06-04T08:39:02Z</time>
      </trkpt>
      <trkpt lat="48.38595" lon="2.68232">
        <ele>100.6</ele>
        <time>2015-06-04T08:39:09Z</time>
      </trkpt>
      <trkpt lat="48.38597" lon="2.68237">
        <ele>100.11</ele>
        <time>2015-06-04T08:39:13Z</time>
      </trkpt>
      <trkpt lat="48.38605" lon="2.68264">
        <ele>97.71</ele>
        <time>2015-06-04T08:39:27Z</time>
      </trkpt>
      <trkpt lat="48.38613" lon="2.68284">
        <ele>95.79</ele>
        <time>2015-06-04T08:39:37Z</time>
      </trkpt>
      <trkpt lat="48.38621" lon="2.68305">
        <ele>95.31</ele>
        <time>2015-06-04T08:39:50Z</time>
      </trkpt>
      <trkpt lat="48.38626" lon="2.6832">
        <ele>94.83</ele>
        <time>2015-06-04T08:39:59Z</time>
      </trkpt>
      <trkpt lat="48.38618" lon="2.68338">
        <ele>94.35</ele>
        <time>2015-06-04T08:40:09Z</time>
      </trkpt>
      <trkpt lat="48.38615" lon="2.68341">
        <ele>94.35</ele>
        <time>2015-06-04T08:40:12Z</time>
      </trkpt>
      <trkpt lat="48.38615" lon="2.68342">
        <ele>95.31</ele>
        <time>2015-06-04T08:40:24Z</time>
      </trkpt>
      <trkpt lat="48.38618" lon="2.68348">
        <ele>92.9</ele>
        <time>2015-06-04T08:40:34Z</time>
      </trkpt>
      <trkpt lat="48.38617" lon="2.68351">
        <ele>91.46</ele>
        <time>2015-06-04T08:40:37Z</time>
      </trkpt>
      <trkpt lat="48.38613" lon="2.68363">
        <ele>90.5</ele>
        <time>2015-06-04T08:40:46Z</time>
      </trkpt>
      <trkpt lat="48.38611" lon="2.68381">
        <ele>90.5</ele>
        <time>2015-06-04T08:40:54Z</time>
      </trkpt>
      <trkpt lat="48.38611" lon="2.68388">
        <ele>89.54</ele>
        <time>2015-06-04T08:40:57Z</time>
      </trkpt>
      <trkpt lat="48.38606" lon="2.68421">
        <ele>88.1</ele>
        <time>2015-06-04T08:41:10Z</time>
      </trkpt>
      <trkpt lat="48.38606" lon="2.68427">
        <ele>88.58</ele>
        <time>2015-06-04T08:41:13Z</time>
      </trkpt>
      <trkpt lat="48.38601" lon="2.68454">
        <ele>86.66</ele>
        <time>2015-06-04T08:41:25Z</time>
      </trkpt>
      <trkpt lat="48.38596" lon="2.68482">
        <ele>85.69</ele>
        <time>2015-06-04T08:41:39Z</time>
      </trkpt>
      <trkpt lat="48.38594" lon="2.68498">
        <ele>84.73</ele>
        <time>2015-06-04T08:41:52Z</time>
      </trkpt>
      <trkpt lat="48.3859" lon="2.68507">
        <ele>84.25</ele>
        <time>2015-06-04T08:41:58Z</time>
      </trkpt>
      <trkpt lat="48.38584" lon="2.68509">
        <ele>83.77</ele>
        <time>2015-06-04T08:42:02Z</time>
      </trkpt>
      <trkpt lat="48.38565" lon="2.68511">
        <ele>84.25</ele>
        <time>2015-06-04T08:42:17Z</time>
      </trkpt>
      <trkpt lat="48.38543" lon="2.68515">
        <ele>82.81</ele>
        <time>2015-06-04T08:42:31Z</time>
      </trkpt>
      <trkpt lat="48.3852" lon="2.68518">
        <ele>82.81</ele>
        <time>2015-06-04T08:42:45Z</time>
      </trkpt>
      <trkpt lat="48.38503" lon="2.6852">
        <ele>82.81</ele>
        <time>2015-06-04T08:42:57Z</time>
      </trkpt>
      <trkpt lat="48.3849" lon="2.68517">
        <ele>82.33</ele>
        <time>2015-06-04T08:43:10Z</time>
      </trkpt>
      <trkpt lat="48.38483" lon="2.68516">
        <ele>86.18</ele>
        <time>2015-06-04T08:43:16Z</time>
      </trkpt>
      <trkpt lat="48.38482" lon="2.68517">
        <ele>82.81</ele>
        <time>2015-06-04T08:43:17Z</time>
      </trkpt>
      <trkpt lat="48.38456" lon="2.6852">
        <ele>83.29</ele>
        <time>2015-06-04T08:43:30Z</time>
      </trkpt>
      <trkpt lat="48.38441" lon="2.6852">
        <ele>82.81</ele>
        <time>2015-06-04T08:43:45Z</time>
      </trkpt>
      <trkpt lat="48.38437" lon="2.68521">
        <ele>83.77</ele>
        <time>2015-06-04T08:43:47Z</time>
      </trkpt>
      <trkpt lat="48.3842" lon="2.68524">
        <ele>83.29</ele>
        <time>2015-06-04T08:43:56Z</time>
      </trkpt>
      <trkpt lat="48.38396" lon="2.68526">
        <ele>82.81</ele>
        <time>2015-06-04T08:44:12Z</time>
      </trkpt>
      <trkpt lat="48.38384" lon="2.68528">
        <ele>82.81</ele>
        <time>2015-06-04T08:44:21Z</time>
      </trkpt>
      <trkpt lat="48.38364" lon="2.6853">
        <ele>82.81</ele>
        <time>2015-06-04T08:44:33Z</time>
      </trkpt>
      <trkpt lat="48.38341" lon="2.68531">
        <ele>83.29</ele>
        <time>2015-06-04T08:44:47Z</time>
      </trkpt>
      <trkpt lat="48.38324" lon="2.68533">
        <ele>79.45</ele>
        <time>2015-06-04T08:44:59Z</time>
      </trkpt>
      <trkpt lat="48.38323" lon="2.68533">
        <ele>82.81</ele>
        <time>2015-06-04T08:45:00Z</time>
      </trkpt>
      <trkpt lat="48.38306" lon="2.68533">
        <ele>83.29</ele>
        <time>2015-06-04T08:45:13Z</time>
      </trkpt>
      <trkpt lat="48.38291" lon="2.68537">
        <ele>83.77</ele>
        <time>2015-06-04T08:45:26Z</time>
      </trkpt>
      <trkpt lat="48.38285" lon="2.68534">
        <ele>83.29</ele>
        <time>2015-06-04T08:45:36Z</time>
      </trkpt>
      <trkpt lat="48.38292" lon="2.6852">
        <ele>83.77</ele>
        <time>2015-06-04T08:45:50Z</time>
      </trkpt>
      <trkpt lat="48.3829" lon="2.68523">
        <ele>83.29</ele>
        <time>2015-06-04T08:45:54Z</time>
      </trkpt>
      <trkpt lat="48.38279" lon="2.68528">
        <ele>83.77</ele>
        <time>2015-06-04T08:46:05Z</time>
      </trkpt>
      <trkpt lat="48.38276" lon="2.68531">
        <ele>83.77</ele>
        <time>2015-06-04T08:46:08Z</time>
      </trkpt>
      <trkpt lat="48.38273" lon="2.6854">
        <ele>83.29</ele>
        <time>2015-06-04T08:46:16Z</time>
      </trkpt>
      <trkpt lat="48.38272" lon="2.68539">
        <ele>83.77</ele>
        <time>2015-06-04T08:46:24Z</time>
      </trkpt>
      <trkpt lat="48.38274" lon="2.68534">
        <ele>83.29</ele>
        <time>2015-06-04T08:46:28Z</time>
      </trkpt>
      <trkpt lat="48.38262" lon="2.68519">
        <ele>83.77</ele>
        <time>2015-06-04T08:46:40Z</time>
      </trkpt>
      <trkpt lat="48.38259" lon="2.68516">
        <ele>83.77</ele>
        <time>2015-06-04T08:46:42Z</time>
      </trkpt>
      <trkpt lat="48.38247" lon="2.68507">
        <ele>83.77</ele>
        <time>2015-06-04T08:46:52Z</time>
      </trkpt>
      <trkpt lat="48.38241" lon="2.68502">
        <ele>83.77</ele>
        <time>2015-06-04T08:46:56Z</time>
      </trkpt>
      <trkpt lat="48.38222" lon="2.68487">
        <ele>83.77</ele>
        <time>2015-06-04T08:47:09Z</time>
      </trkpt>
      <trkpt lat="48.38204" lon="2.68473">
        <ele>83.77</ele>
        <time>2015-06-04T08:47:23Z</time>
      </trkpt>
      <trkpt lat="48.38191" lon="2.68463">
        <ele>84.25</ele>
        <time>2015-06-04T08:47:32Z</time>
      </trkpt>
      <trkpt lat="48.38171" lon="2.68447">
        <ele>84.25</ele>
        <time>2015-06-04T08:47:46Z</time>
      </trkpt>
      <trkpt lat="48.3815" lon="2.68433">
        <ele>84.73</ele>
        <time>2015-06-04T08:47:59Z</time>
      </trkpt>
      <trkpt lat="48.3813" lon="2.68416">
        <ele>84.73</ele>
        <time>2015-06-04T08:48:14Z</time>
      </trkpt>
      <trkpt lat="48.38111" lon="2.68399">
        <ele>84.73</ele>
        <time>2015-06-04T08:48:28Z</time>
      </trkpt>
      <trkpt lat="48.38108" lon="2.68397">
        <ele>84.73</ele>
        <time>2015-06-04T08:48:30Z</time>
      </trkpt>
      <trkpt lat="48.38097" lon="2.68389">
        <ele>85.21</ele>
        <time>2015-06-04T08:48:38Z</time>
      </trkpt>
      <trkpt lat="48.38094" lon="2.68384">
        <ele>85.21</ele>
        <time>2015-06-04T08:48:42Z</time>
      </trkpt>
      <trkpt lat="48.38077" lon="2.68373">
        <ele>85.69</ele>
        <time>2015-06-04T08:48:56Z</time>
      </trkpt>
      <trkpt lat="48.38057" lon="2.68361">
        <ele>85.69</ele>
        <time>2015-06-04T08:49:12Z</time>
      </trkpt>
      <trkpt lat="48.38056" lon="2.68361">
        <ele>85.21</ele>
        <time>2015-06-04T08:49:46Z</time>
      </trkpt>
      <trkpt lat="48.38054" lon="2.6836">
        <ele>85.69</ele>
        <time>2015-06-04T08:49:49Z</time>
      </trkpt>
      <trkpt lat="48.38039" lon="2.68347">
        <ele>86.18</ele>
        <time>2015-06-04T08:50:04Z</time>
      </trkpt>
      <trkpt lat="48.38028" lon="2.6834">
        <ele>86.66</ele>
        <time>2015-06-04T08:50:20Z</time>
      </trkpt>
      <trkpt lat="48.38027" lon="2.68339">
        <ele>86.18</ele>
        <time>2015-06-04T08:50:21Z</time>
      </trkpt>
      <trkpt lat="48.38022" lon="2.68327">
        <ele>86.18</ele>
        <time>2015-06-04T08:50:42Z</time>
      </trkpt>
      <trkpt lat="48.38013" lon="2.6832">
        <ele>87.14</ele>
        <time>2015-06-04T08:51:05Z</time>
      </trkpt>
      <trkpt lat="48.37997" lon="2.68306">
        <ele>87.14</ele>
        <time>2015-06-04T08:51:19Z</time>
      </trkpt>
      <trkpt lat="48.3798" lon="2.68295">
        <ele>87.62</ele>
        <time>2015-06-04T08:51:32Z</time>
      </trkpt>
      <trkpt lat="48.37964" lon="2.68282">
        <ele>87.14</ele>
        <time>2015-06-04T08:51:44Z</time>
      </trkpt>
      <trkpt lat="48.37955" lon="2.68276">
        <ele>87.62</ele>
        <time>2015-06-04T08:51:50Z</time>
      </trkpt>
      <trkpt lat="48.37941" lon="2.68264">
        <ele>87.62</ele>
        <time>2015-06-04T08:52:01Z</time>
      </trkpt>
      <trkpt lat="48.37933" lon="2.68256">
        <ele>88.1</ele>
        <time>2015-06-04T08:52:07Z</time>
      </trkpt>
      <trkpt lat="48.37926" lon="2.68254">
        <ele>88.1</ele>
        <time>2015-06-04T08:52:11Z</time>
      </trkpt>
      <trkpt lat="48.37913" lon="2.68243">
        <ele>88.1</ele>
        <time>2015-06-04T08:52:22Z</time>
      </trkpt>
      <trkpt lat="48.37899" lon="2.6823">
        <ele>88.58</ele>
        <time>2015-06-04T08:52:38Z</time>
      </trkpt>
      <trkpt lat="48.37899" lon="2.68229">
        <ele>88.58</ele>
        <time>2015-06-04T08:52:53Z</time>
      </trkpt>
      <trkpt lat="48.37898" lon="2.68229">
        <ele>88.58</ele>
        <time>2015-06-04T08:52:54Z</time>
      </trkpt>
      <trkpt lat="48.37894" lon="2.68224">
        <ele>88.58</ele>
        <time>2015-06-04T08:52:58Z</time>
      </trkpt>
      <trkpt lat="48.37886" lon="2.68215">
        <ele>89.06</ele>
        <time>2015-06-04T08:53:05Z</time>
      </trkpt>
      <trkpt lat="48.37881" lon="2.68208">
        <ele>88.58</ele>
        <time>2015-06-04T08:53:12Z</time>
      </trkpt>
      <trkpt lat="48.37875" lon="2.68181">
        <ele>89.06</ele>
        <time>2015-06-04T08:53:26Z</time>
      </trkpt>
      <trkpt lat="48.37875" lon="2.68178">
        <ele>89.06</ele>
        <time>2015-06-04T08:53:28Z</time>
      </trkpt>
      <trkpt lat="48.37876" lon="2.68168">
        <ele>89.54</ele>
        <time>2015-06-04T08:53:33Z</time>
      </trkpt>
      <trkpt lat="48.37872" lon="2.68162">
        <ele>89.54</ele>
        <time>2015-06-04T08:53:37Z</time>
      </trkpt>
      <trkpt lat="48.37866" lon="2.68147">
        <ele>89.54</ele>
        <time>2015-06-04T08:53:45Z</time>
      </trkpt>
      <trkpt lat="48.37866" lon="2.68143">
        <ele>89.54</ele>
        <time>2015-06-04T08:53:47Z</time>
      </trkpt>
      <trkpt lat="48.37862" lon="2.68123">
        <ele>90.5</ele>
        <time>2015-06-04T08:54:00Z</time>
      </trkpt>
      <trkpt lat="48.37861" lon="2.68116">
        <ele>90.98</ele>
        <time>2015-06-04T08:54:25Z</time>
      </trkpt>
      <trkpt lat="48.37861" lon="2.68109">
        <ele>90.98</ele>
        <time>2015-06-04T08:54:42Z</time>
      </trkpt>
      <trkpt lat="48.37862" lon="2.68095">
        <ele>90.98</ele>
        <time>2015-06-04T08:54:52Z</time>
      </trkpt>
      <trkpt lat="48.37857" lon="2.68069">
        <ele>92.42</ele>
        <time>2015-06-04T08:55:06Z</time>
      </trkpt>
      <trkpt lat="48.37857" lon="2.68057">
        <ele>93.39</ele>
        <time>2015-06-04T08:55:19Z</time>
      </trkpt>
      <trkpt lat="48.37852" lon="2.68046">
        <ele>95.31</ele>
        <time>2015-06-04T08:55:30Z</time>
      </trkpt>
      <trkpt lat="48.37842" lon="2.68025">
        <ele>97.71</ele>
        <time>2015-06-04T08:55:43Z</time>
      </trkpt>
      <trkpt lat="48.37834" lon="2.68009">
        <ele>100.11</ele>
        <time>2015-06-04T08:55:57Z</time>
      </trkpt>
      <trkpt lat="48.3783" lon="2.68001">
        <ele>101.56</ele>
        <time>2015-06-04T08:56:06Z</time>
      </trkpt>
      <trkpt lat="48.37827" lon="2.68">
        <ele>102.04</ele>
        <time>2015-06-04T08:56:08Z</time>
      </trkpt>
      <trkpt lat="48.37813" lon="2.67993">
        <ele>103.96</ele>
        <time>2015-06-04T08:56:21Z</time>
      </trkpt>
      <trkpt lat="48.37812" lon="2.67991">
        <ele>105.4</ele>
        <time>2015-06-04T08:56:24Z</time>
      </trkpt>
      <trkpt lat="48.37799" lon="2.67993">
        <ele>108.29</ele>
        <time>2015-06-04T08:56:37Z</time>
      </trkpt>
      <trkpt lat="48.37797" lon="2.67985">
        <ele>109.73</ele>
        <time>2015-06-04T08:56:47Z</time>
      </trkpt>
      <trkpt lat="48.37796" lon="2.67966">
        <ele>111.65</ele>
        <time>2015-06-04T08:57:00Z</time>
      </trkpt>
      <trkpt lat="48.37794" lon="2.67965">
        <ele>107.32</ele>
        <time>2015-06-04T08:57:12Z</time>
      </trkpt>
      <trkpt lat="48.378" lon="2.67961">
        <ele>112.61</ele>
        <time>2015-06-04T08:57:22Z</time>
      </trkpt>
      <trkpt lat="48.37813" lon="2.67945">
        <ele>115.01</ele>
        <time>2015-06-04T08:57:40Z</time>
      </trkpt>
      <trkpt lat="48.3781" lon="2.67938">
        <ele>116.46</ele>
        <time>2015-06-04T08:57:52Z</time>
      </trkpt>
      <trkpt lat="48.37812" lon="2.6793">
        <ele>118.86</ele>
        <time>2015-06-04T08:58:01Z</time>
      </trkpt>
      <trkpt lat="48.37818" lon="2.67921">
        <ele>121.26</ele>
        <time>2015-06-04T08:58:12Z</time>
      </trkpt>
      <trkpt lat="48.3782" lon="2.6791">
        <ele>122.22</ele>
        <time>2015-06-04T08:58:26Z</time>
      </trkpt>
      <trkpt lat="48.37819" lon="2.67909">
        <ele>122.22</ele>
        <time>2015-06-04T08:58:29Z</time>
      </trkpt>
      <trkpt lat="48.37818" lon="2.67906">
        <ele>122.22</ele>
        <time>2015-06-04T08:58:32Z</time>
      </trkpt>
      <trkpt lat="48.37812" lon="2.67897">
        <ele>121.26</ele>
        <time>2015-06-04T08:58:45Z</time>
      </trkpt>
      <trkpt lat="48.3781" lon="2.67905">
        <ele>119.34</ele>
        <time>2015-06-04T08:58:58Z</time>
      </trkpt>
      <trkpt lat="48.37807" lon="2.67915">
        <ele>116.46</ele>
        <time>2015-06-04T08:59:11Z</time>
      </trkpt>
      <trkpt lat="48.37804" lon="2.67923">
        <ele>114.53</ele>
        <time>2015-06-04T08:59:25Z</time>
      </trkpt>
      <trkpt lat="48.378" lon="2.67932">
        <ele>113.09</ele>
        <time>2015-06-04T08:59:38Z</time>
      </trkpt>
      <trkpt lat="48.37794" lon="2.67936">
        <ele>111.17</ele>
        <time>2015-06-04T08:59:48Z</time>
      </trkpt>
      <trkpt lat="48.37791" lon="2.67934">
        <ele>108.77</ele>
        <time>2015-06-04T08:59:56Z</time>
      </trkpt>
      <trkpt lat="48.37785" lon="2.67936">
        <ele>105.4</ele>
        <time>2015-06-04T09:00:08Z</time>
      </trkpt>
      <trkpt lat="48.37783" lon="2.67944">
        <ele>104.44</ele>
        <time>2015-06-04T09:00:13Z</time>
      </trkpt>
      <trkpt lat="48.37771" lon="2.67952">
        <ele>102.52</ele>
        <time>2015-06-04T09:00:24Z</time>
      </trkpt>
      <trkpt lat="48.37766" lon="2.67952">
        <ele>101.56</ele>
        <time>2015-06-04T09:00:28Z</time>
      </trkpt>
      <trkpt lat="48.37759" lon="2.67948">
        <ele>101.08</ele>
        <time>2015-06-04T09:00:35Z</time>
      </trkpt>
      <trkpt lat="48.37747" lon="2.67949">
        <ele>99.15</ele>
        <time>2015-06-04T09:00:43Z</time>
      </trkpt>
      <trkpt lat="48.37744" lon="2.67953">
        <ele>98.19</ele>
        <time>2015-06-04T09:00:48Z</time>
      </trkpt>
      <trkpt lat="48.3773" lon="2.67962">
        <ele>98.19</ele>
        <time>2015-06-04T09:00:59Z</time>
        <extensions>
          <visugpx:TrkExtension xmlns:visugpx="https://www.visugpx.com/editgpx/">
            <visugpx:node>1</visugpx:node>
            </visugpx:TrkExtension>
        </extensions>
      </trkpt>
    </trkseg>
  </trk>
</gpx>